TMW weather

Tamworth Airport
Tamworth, New South Wales, Australia

Public forecast

Using degrees Celsius for public forecast. Weather courtesy of forecast.io.

METAR (pilot weather report)

Retrieved 2019/02/20 13:30 UTC (8 minutes ago):

YSTW 201330Z AUTO 13011KT 9999 // NCD 23/17 Q1010 RF00.0/000.0

TAF (pilot weather forecast)

Retrieved 2019/02/20 12:36 UTC (1 hour ago):

TAF TAF YSTW 201102Z 2012/2106 14010KT CAVOK FM201800 15012KT 9999 SCT025 FM210000 13014KT 9999 -SHRA SCT060 PROB30 INTER 2100/2106 VRB20G35KT 3000 TSRA SCT010 SCT060CB